sensor_id;sensor_type;location;lat;lon;timestamp;temperature;humidity
71128;SHT30;59249;59.736;30.568;2023-07-31T00:01:29;16.44;83.89
71128;SHT30;59249;59.736;30.568;2023-07-31T00:03:59;16.42;83.68
71128;SHT30;59249;59.736;30.568;2023-07-31T00:06:30;16.38;84.11
71128;SHT30;59249;59.736;30.568;2023-07-31T00:09:01;16.40;84.08
71128;SHT30;59249;59.736;30.568;2023-07-31T00:11:30;16.40;84.14
71128;SHT30;59249;59.736;30.568;2023-07-31T00:13:59;16.37;84.64
71128;SHT30;59249;59.736;30.568;2023-07-31T00:16:28;16.32;84.85
71128;SHT30;59249;59.736;30.568;2023-07-31T00:18:58;16.30;85.14
71128;SHT30;59249;59.736;30.568;2023-07-31T00:21:28;16.30;84.92
71128;SHT30;59249;59.736;30.568;2023-07-31T00:23:57;16.28;85.02
71128;SHT30;59249;59.736;30.568;2023-07-31T00:26:28;16.23;84.63
71128;SHT30;59249;59.736;30.568;2023-07-31T00:28:58;16.25;84.75
71128;SHT30;59249;59.736;30.568;2023-07-31T00:31:28;16.29;84.63
71128;SHT30;59249;59.736;30.568;2023-07-31T00:34:00;16.26;84.40
71128;SHT30;59249;59.736;30.568;2023-07-31T00:36:29;16.28;84.28
71128;SHT30;59249;59.736;30.568;2023-07-31T00:38:58;16.23;84.64
71128;SHT30;59249;59.736;30.568;2023-07-31T00:41:29;16.22;84.43
71128;SHT30;59249;59.736;30.568;2023-07-31T00:43:58;16.25;84.41
71128;SHT30;59249;59.736;30.568;2023-07-31T00:46:27;16.21;84.49
71128;SHT30;59249;59.736;30.568;2023-07-31T00:48:57;16.21;84.53
71128;SHT30;59249;59.736;30.568;2023-07-31T00:51:26;16.18;84.49
71128;SHT30;59249;59.736;30.568;2023-07-31T00:53:56;16.13;84.55
71128;SHT30;59249;59.736;30.568;2023-07-31T00:56:29;16.12;84.49
71128;SHT30;59249;59.736;30.568;2023-07-31T00:58:58;16.15;84.20
71128;SHT30;59249;59.736;30.568;2023-07-31T01:01:28;16.12;84.57
71128;SHT30;59249;59.736;30.568;2023-07-31T01:03:57;16.06;84.96
71128;SHT30;59249;59.736;30.568;2023-07-31T01:06:35;16.07;85.07
71128;SHT30;59249;59.736;30.568;2023-07-31T01:09:13;16.06;84.64
71128;SHT30;59249;59.736;30.568;2023-07-31T01:11:53;16.08;84.56
71128;SHT30;59249;59.736;30.568;2023-07-31T01:14:25;16.09;84.62
71128;SHT30;59249;59.736;30.568;2023-07-31T01:16:54;16.07;84.62
71128;SHT30;59249;59.736;30.568;2023-07-31T01:19:25;16.07;84.62
71128;SHT30;59249;59.736;30.568;2023-07-31T01:22:33;16.02;84.59
71128;SHT30;59249;59.736;30.568;2023-07-31T01:25:34;15.97;84.88
71128;SHT30;59249;59.736;30.568;2023-07-31T01:28:13;15.98;84.59
71128;SHT30;59249;59.736;30.568;2023-07-31T01:30:48;15.96;84.78
71128;SHT30;59249;59.736;30.568;2023-07-31T01:33:17;15.96;84.89
71128;SHT30;59249;59.736;30.568;2023-07-31T01:35:48;15.93;85.76
71128;SHT30;59249;59.736;30.568;2023-07-31T01:38:21;15.94;85.88
71128;SHT30;59249;59.736;30.568;2023-07-31T01:40:52;15.92;85.72
71128;SHT30;59249;59.736;30.568;2023-07-31T01:43:22;15.90;86.40
71128;SHT30;59249;59.736;30.568;2023-07-31T01:45:52;16.00;86.35
71128;SHT30;59249;59.736;30.568;2023-07-31T01:48:21;16.00;86.73
71128;SHT30;59249;59.736;30.568;2023-07-31T01:50:50;16.05;87.06
71128;SHT30;59249;59.736;30.568;2023-07-31T01:53:19;16.04;86.96
71128;SHT30;59249;59.736;30.568;2023-07-31T01:55:48;16.11;86.56
71128;SHT30;59249;59.736;30.568;2023-07-31T01:58:17;16.16;86.49
71128;SHT30;59249;59.736;30.568;2023-07-31T02:00:48;16.18;86.51
71128;SHT30;59249;59.736;30.568;2023-07-31T02:03:17;16.24;86.23
71128;SHT30;59249;59.736;30.568;2023-07-31T02:05:48;16.24;86.24
71128;SHT30;59249;59.736;30.568;2023-07-31T02:08:17;16.29;86.01
71128;SHT30;59249;59.736;30.568;2023-07-31T02:10:46;16.27;86.08
71128;SHT30;59249;59.736;30.568;2023-07-31T02:13:16;16.30;85.83
71128;SHT30;59249;59.736;30.568;2023-07-31T02:15:45;16.40;85.75
71128;SHT30;59249;59.736;30.568;2023-07-31T02:18:17;16.51;85.18
71128;SHT30;59249;59.736;30.568;2023-07-31T02:20:49;16.75;84.87
71128;SHT30;59249;59.736;30.568;2023-07-31T02:23:19;16.94;84.22
71128;SHT30;59249;59.736;30.568;2023-07-31T02:25:50;17.30;83.86
71128;SHT30;59249;59.736;30.568;2023-07-31T02:28:26;17.70;83.30
71128;SHT30;59249;59.736;30.568;2023-07-31T02:30:58;18.04;81.76
71128;SHT30;59249;59.736;30.568;2023-07-31T02:33:30;18.27;80.66
71128;SHT30;59249;59.736;30.568;2023-07-31T02:35:59;18.47;79.83
71128;SHT30;59249;59.736;30.568;2023-07-31T02:38:28;18.70;79.79
71128;SHT30;59249;59.736;30.568;2023-07-31T02:40:57;18.94;79.00
71128;SHT30;59249;59.736;30.568;2023-07-31T02:43:27;19.13;77.16
71128;SHT30;59249;59.736;30.568;2023-07-31T02:45:57;19.35;76.78
71128;SHT30;59249;59.736;30.568;2023-07-31T02:48:26;19.50;75.94
71128;SHT30;59249;59.736;30.568;2023-07-31T02:51:00;19.51;76.02
71128;SHT30;59249;59.736;30.568;2023-07-31T02:53:31;19.62;76.07
71128;SHT30;59249;59.736;30.568;2023-07-31T02:56:00;19.86;75.86
71128;SHT30;59249;59.736;30.568;2023-07-31T02:58:29;20.04;75.28
71128;SHT30;59249;59.736;30.568;2023-07-31T03:00:58;20.12;74.74
71128;SHT30;59249;59.736;30.568;2023-07-31T03:03:28;20.22;74.45
71128;SHT30;59249;59.736;30.568;2023-07-31T03:06:00;20.25;74.32
71128;SHT30;59249;59.736;30.568;2023-07-31T03:08:30;20.38;74.11
71128;SHT30;59249;59.736;30.568;2023-07-31T03:11:01;20.61;73.51
71128;SHT30;59249;59.736;30.568;2023-07-31T03:13:30;20.91;72.44
71128;SHT30;59249;59.736;30.568;2023-07-31T03:15:59;21.11;71.94
71128;SHT30;59249;59.736;30.568;2023-07-31T03:18:28;21.18;71.49
71128;SHT30;59249;59.736;30.568;2023-07-31T03:20:58;21.34;71.54
71128;SHT30;59249;59.736;30.568;2023-07-31T03:23:27;21.47;70.84
71128;SHT30;59249;59.736;30.568;2023-07-31T03:25:59;21.44;70.39
71128;SHT30;59249;59.736;30.568;2023-07-31T03:28:29;21.30;70.35
71128;SHT30;59249;59.736;30.568;2023-07-31T03:30:58;21.12;70.88
71128;SHT30;59249;59.736;30.568;2023-07-31T03:33:28;20.84;71.53
71128;SHT30;59249;59.736;30.568;2023-07-31T03:35:58;20.51;72.09
71128;SHT30;59249;59.736;30.568;2023-07-31T03:38:27;20.42;72.45
71128;SHT30;59249;59.736;30.568;2023-07-31T03:40:57;20.28;73.05
71128;SHT30;59249;59.736;30.568;2023-07-31T03:43:27;20.18;73.35
71128;SHT30;59249;59.736;30.568;2023-07-31T03:45:56;20.15;73.41
71128;SHT30;59249;59.736;30.568;2023-07-31T03:48:26;20.08;73.46
71128;SHT30;59249;59.736;30.568;2023-07-31T03:50:55;20.09;73.57
71128;SHT30;59249;59.736;30.568;2023-07-31T03:53:25;20.10;73.46
71128;SHT30;59249;59.736;30.568;2023-07-31T03:55:54;20.11;73.35
71128;SHT30;59249;59.736;30.568;2023-07-31T03:58:25;20.17;72.86
71128;SHT30;59249;59.736;30.568;2023-07-31T04:00:57;20.19;73.39
71128;SHT30;59249;59.736;30.568;2023-07-31T04:03:43;20.17;73.59
71128;SHT30;59249;59.736;30.568;2023-07-31T04:06:12;20.10;73.37
71128;SHT30;59249;59.736;30.568;2023-07-31T04:08:41;19.91;73.77
71128;SHT30;59249;59.736;30.568;2023-07-31T04:11:17;19.81;74.44
71128;SHT30;59249;59.736;30.568;2023-07-31T04:13:48;19.82;74.39
71128;SHT30;59249;59.736;30.568;2023-07-31T04:16:17;19.81;74.50
71128;SHT30;59249;59.736;30.568;2023-07-31T04:18:46;19.86;74.59
71128;SHT30;59249;59.736;30.568;2023-07-31T04:21:15;19.96;74.33
71128;SHT30;59249;59.736;30.568;2023-07-31T04:23:45;20.05;74.05
71128;SHT30;59249;59.736;30.568;2023-07-31T04:26:14;20.12;73.76
71128;SHT30;59249;59.736;30.568;2023-07-31T04:28:43;20.28;73.55
71128;SHT30;59249;59.736;30.568;2023-07-31T04:31:14;20.51;72.79
71128;SHT30;59249;59.736;30.568;2023-07-31T04:33:43;20.76;72.16
71128;SHT30;59249;59.736;30.568;2023-07-31T04:36:12;20.84;70.71
71128;SHT30;59249;59.736;30.568;2023-07-31T04:38:41;20.97;70.03
71128;SHT30;59249;59.736;30.568;2023-07-31T04:41:10;21.01;70.08
71128;SHT30;59249;59.736;30.568;2023-07-31T04:43:40;20.93;70.39
71128;SHT30;59249;59.736;30.568;2023-07-31T04:46:13;20.90;69.38
71128;SHT30;59249;59.736;30.568;2023-07-31T04:48:42;20.99;69.15
71128;SHT30;59249;59.736;30.568;2023-07-31T04:51:12;21.09;68.82
71128;SHT30;59249;59.736;30.568;2023-07-31T04:53:41;21.15;68.48
71128;SHT30;59249;59.736;30.568;2023-07-31T04:56:10;21.22;68.29
71128;SHT30;59249;59.736;30.568;2023-07-31T04:58:39;21.31;68.62
71128;SHT30;59249;59.736;30.568;2023-07-31T05:01:08;21.36;68.38
71128;SHT30;59249;59.736;30.568;2023-07-31T05:03:39;21.39;68.38
71128;SHT30;59249;59.736;30.568;2023-07-31T05:06:08;21.44;68.46
71128;SHT30;59249;59.736;30.568;2023-07-31T05:08:37;21.54;68.46
71128;SHT30;59249;59.736;30.568;2023-07-31T05:11:06;21.69;68.03
71128;SHT30;59249;59.736;30.568;2023-07-31T05:13:36;21.81;67.90
71128;SHT30;59249;59.736;30.568;2023-07-31T05:16:05;21.90;67.11
71128;SHT30;59249;59.736;30.568;2023-07-31T05:18:34;22.01;67.02
71128;SHT30;59249;59.736;30.568;2023-07-31T05:21:04;22.08;66.84
71128;SHT30;59249;59.736;30.568;2023-07-31T05:23:33;22.14;66.77
71128;SHT30;59249;59.736;30.568;2023-07-31T05:26:04;22.23;66.68
71128;SHT30;59249;59.736;30.568;2023-07-31T05:28:35;22.23;66.72
71128;SHT30;59249;59.736;30.568;2023-07-31T05:31:05;22.24;66.99
71128;SHT30;59249;59.736;30.568;2023-07-31T05:33:35;22.30;66.83
71128;SHT30;59249;59.736;30.568;2023-07-31T05:36:06;22.43;67.37
71128;SHT30;59249;59.736;30.568;2023-07-31T05:38:35;22.52;67.63
71128;SHT30;59249;59.736;30.568;2023-07-31T05:41:05;22.66;67.26
71128;SHT30;59249;59.736;30.568;2023-07-31T05:43:34;22.86;66.97
71128;SHT30;59249;59.736;30.568;2023-07-31T05:46:03;23.01;66.84
71128;SHT30;59249;59.736;30.568;2023-07-31T05:48:33;23.15;66.55
71128;SHT30;59249;59.736;30.568;2023-07-31T05:51:03;23.20;66.02
71128;SHT30;59249;59.736;30.568;2023-07-31T05:53:33;23.36;65.49
71128;SHT30;59249;59.736;30.568;2023-07-31T05:56:04;23.40;64.89
71128;SHT30;59249;59.736;30.568;2023-07-31T05:58:33;23.39;65.13
71128;SHT30;59249;59.736;30.568;2023-07-31T06:01:02;23.53;65.09
71128;SHT30;59249;59.736;30.568;2023-07-31T06:03:31;23.64;65.13
71128;SHT30;59249;59.736;30.568;2023-07-31T06:06:00;23.68;64.90
71128;SHT30;59249;59.736;30.568;2023-07-31T06:08:32;23.73;64.69
71128;SHT30;59249;59.736;30.568;2023-07-31T06:11:04;23.76;64.44
71128;SHT30;59249;59.736;30.568;2023-07-31T06:13:35;23.79;64.45
71128;SHT30;59249;59.736;30.568;2023-07-31T06:16:04;23.81;64.68
71128;SHT30;59249;59.736;30.568;2023-07-31T06:18:34;23.84;64.31
71128;SHT30;59249;59.736;30.568;2023-07-31T06:21:03;23.86;64.19
71128;SHT30;59249;59.736;30.568;2023-07-31T06:23:32;24.01;64.05
71128;SHT30;59249;59.736;30.568;2023-07-31T06:26:01;24.13;64.08
71128;SHT30;59249;59.736;30.568;2023-07-31T06:28:32;24.22;64.22
71128;SHT30;59249;59.736;30.568;2023-07-31T06:31:01;24.32;64.13
71128;SHT30;59249;59.736;30.568;2023-07-31T06:33:33;24.37;63.72
71128;SHT30;59249;59.736;30.568;2023-07-31T06:36:02;24.39;63.06
71128;SHT30;59249;59.736;30.568;2023-07-31T06:38:31;24.45;63.00
71128;SHT30;59249;59.736;30.568;2023-07-31T06:41:00;24.56;61.84
71128;SHT30;59249;59.736;30.568;2023-07-31T06:43:31;24.52;61.61
71128;SHT30;59249;59.736;30.568;2023-07-31T06:46:05;24.58;62.27
71128;SHT30;59249;59.736;30.568;2023-07-31T06:48:34;24.64;61.59
71128;SHT30;59249;59.736;30.568;2023-07-31T06:51:04;24.74;61.84
71128;SHT30;59249;59.736;30.568;2023-07-31T06:53:33;24.87;61.23
71128;SHT30;59249;59.736;30.568;2023-07-31T06:56:03;24.86;60.63
71128;SHT30;59249;59.736;30.568;2023-07-31T06:58:34;24.70;60.19
71128;SHT30;59249;59.736;30.568;2023-07-31T07:01:03;24.75;59.97
71128;SHT30;59249;59.736;30.568;2023-07-31T07:03:32;24.67;59.79
71128;SHT30;59249;59.736;30.568;2023-07-31T07:06:03;24.64;60.15
71128;SHT30;59249;59.736;30.568;2023-07-31T07:08:32;24.76;59.74
71128;SHT30;59249;59.736;30.568;2023-07-31T07:11:01;24.69;59.38
71128;SHT30;59249;59.736;30.568;2023-07-31T07:13:30;24.77;59.51
71128;SHT30;59249;59.736;30.568;2023-07-31T07:16:01;24.83;59.12
71128;SHT30;59249;59.736;30.568;2023-07-31T07:18:30;25.01;58.90
71128;SHT30;59249;59.736;30.568;2023-07-31T07:20:59;25.10;58.59
71128;SHT30;59249;59.736;30.568;2023-07-31T07:23:30;25.19;58.45
71128;SHT30;59249;59.736;30.568;2023-07-31T07:25:59;25.15;58.72
71128;SHT30;59249;59.736;30.568;2023-07-31T07:28:28;25.22;58.46
71128;SHT30;59249;59.736;30.568;2023-07-31T07:30:57;25.31;58.43
71128;SHT30;59249;59.736;30.568;2023-07-31T07:33:28;25.41;58.37
71128;SHT30;59249;59.736;30.568;2023-07-31T07:36:01;25.42;57.96
71128;SHT30;59249;59.736;30.568;2023-07-31T07:38:31;25.49;58.06
71128;SHT30;59249;59.736;30.568;2023-07-31T07:41:00;25.60;57.87
71128;SHT30;59249;59.736;30.568;2023-07-31T07:43:30;25.74;57.78
71128;SHT30;59249;59.736;30.568;2023-07-31T07:45:59;25.81;57.78
71128;SHT30;59249;59.736;30.568;2023-07-31T07:48:29;25.90;57.47
71128;SHT30;59249;59.736;30.568;2023-07-31T07:50:59;25.92;57.20
71128;SHT30;59249;59.736;30.568;2023-07-31T07:53:28;26.10;56.54
71128;SHT30;59249;59.736;30.568;2023-07-31T07:55:57;26.09;56.28
71128;SHT30;59249;59.736;30.568;2023-07-31T07:58:26;26.18;55.47
71128;SHT30;59249;59.736;30.568;2023-07-31T08:00:55;26.22;55.42
71128;SHT30;59249;59.736;30.568;2023-07-31T08:03:24;26.21;54.73
71128;SHT30;59249;59.736;30.568;2023-07-31T08:05:59;25.99;54.77
71128;SHT30;59249;59.736;30.568;2023-07-31T08:08:29;25.85;55.97
71128;SHT30;59249;59.736;30.568;2023-07-31T08:10:58;25.71;55.90
71128;SHT30;59249;59.736;30.568;2023-07-31T08:13:27;25.80;55.74
71128;SHT30;59249;59.736;30.568;2023-07-31T08:15:56;25.94;55.50
71128;SHT30;59249;59.736;30.568;2023-07-31T08:18:26;25.94;54.34
71128;SHT30;59249;59.736;30.568;2023-07-31T08:20:55;26.09;54.73
71128;SHT30;59249;59.736;30.568;2023-07-31T08:23:25;26.13;54.24
71128;SHT30;59249;59.736;30.568;2023-07-31T08:25:55;26.17;54.22
71128;SHT30;59249;59.736;30.568;2023-07-31T08:28:24;26.31;54.09
71128;SHT30;59249;59.736;30.568;2023-07-31T08:30:53;26.28;54.09
71128;SHT30;59249;59.736;30.568;2023-07-31T08:33:22;26.42;54.33
71128;SHT30;59249;59.736;30.568;2023-07-31T08:35:51;26.44;54.31
71128;SHT30;59249;59.736;30.568;2023-07-31T08:38:20;26.34;53.86
71128;SHT30;59249;59.736;30.568;2023-07-31T08:40:54;26.19;53.82
71128;SHT30;59249;59.736;30.568;2023-07-31T08:43:26;26.30;54.19
71128;SHT30;59249;59.736;30.568;2023-07-31T08:45:55;26.37;53.89
71128;SHT30;59249;59.736;30.568;2023-07-31T08:48:26;26.51;52.83
71128;SHT30;59249;59.736;30.568;2023-07-31T08:50:56;26.60;52.90
71128;SHT30;59249;59.736;30.568;2023-07-31T08:53:25;26.81;53.41
71128;SHT30;59249;59.736;30.568;2023-07-31T08:55:58;26.96;53.23
71128;SHT30;59249;59.736;30.568;2023-07-31T08:58:32;27.07;52.72
71128;SHT30;59249;59.736;30.568;2023-07-31T09:01:04;26.81;51.49
71128;SHT30;59249;59.736;30.568;2023-07-31T09:03:34;26.75;51.95
71128;SHT30;59249;59.736;30.568;2023-07-31T09:06:06;26.77;51.84
71128;SHT30;59249;59.736;30.568;2023-07-31T09:08:39;26.88;52.02
71128;SHT30;59249;59.736;30.568;2023-07-31T09:11:12;26.97;51.74
71128;SHT30;59249;59.736;30.568;2023-07-31T09:13:43;27.10;51.33
71128;SHT30;59249;59.736;30.568;2023-07-31T09:16:12;27.18;51.67
71128;SHT30;59249;59.736;30.568;2023-07-31T09:18:54;27.32;50.96
71128;SHT30;59249;59.736;30.568;2023-07-31T09:21:25;27.33;50.73
71128;SHT30;59249;59.736;30.568;2023-07-31T09:23:55;27.51;50.70
71128;SHT30;59249;59.736;30.568;2023-07-31T09:26:34;27.61;50.41
71128;SHT30;59249;59.736;30.568;2023-07-31T09:29:07;27.69;50.55
71128;SHT30;59249;59.736;30.568;2023-07-31T09:31:47;27.74;49.71
71128;SHT30;59249;59.736;30.568;2023-07-31T09:34:16;27.90;49.86
71128;SHT30;59249;59.736;30.568;2023-07-31T09:36:47;28.02;49.55
71128;SHT30;59249;59.736;30.568;2023-07-31T09:39:18;28.14;49.32
71128;SHT30;59249;59.736;30.568;2023-07-31T09:41:56;28.23;48.93
71128;SHT30;59249;59.736;30.568;2023-07-31T09:44:38;28.54;48.41
71128;SHT30;59249;59.736;30.568;2023-07-31T09:47:21;28.61;48.79
71128;SHT30;59249;59.736;30.568;2023-07-31T09:49:53;28.90;47.97
71128;SHT30;59249;59.736;30.568;2023-07-31T09:52:22;28.98;47.68
71128;SHT30;59249;59.736;30.568;2023-07-31T09:54:54;28.83;47.15
71128;SHT30;59249;59.736;30.568;2023-07-31T09:57:26;28.90;46.97
71128;SHT30;59249;59.736;30.568;2023-07-31T09:59:58;28.86;46.56
71128;SHT30;59249;59.736;30.568;2023-07-31T10:02:39;28.97;46.51
71128;SHT30;59249;59.736;30.568;2023-07-31T10:05:10;28.73;46.65
71128;SHT30;59249;59.736;30.568;2023-07-31T10:07:45;28.82;46.72
71128;SHT30;59249;59.736;30.568;2023-07-31T10:10:21;28.74;47.03
71128;SHT30;59249;59.736;30.568;2023-07-31T10:12:53;28.54;47.03
71128;SHT30;59249;59.736;30.568;2023-07-31T10:15:23;28.49;47.61
71128;SHT30;59249;59.736;30.568;2023-07-31T10:17:55;28.60;47.86
71128;SHT30;59249;59.736;30.568;2023-07-31T10:20:26;28.81;47.12
71128;SHT30;59249;59.736;30.568;2023-07-31T10:22:57;28.91;47.01
71128;SHT30;59249;59.736;30.568;2023-07-31T10:25:27;28.69;47.13
71128;SHT30;59249;59.736;30.568;2023-07-31T10:27:59;28.70;47.00
71128;SHT30;59249;59.736;30.568;2023-07-31T10:30:33;28.65;46.74
71128;SHT30;59249;59.736;30.568;2023-07-31T10:33:07;28.64;46.25
71128;SHT30;59249;59.736;30.568;2023-07-31T10:35:36;28.51;46.08
71128;SHT30;59249;59.736;30.568;2023-07-31T10:38:10;28.45;46.60
71128;SHT30;59249;59.736;30.568;2023-07-31T10:40:43;28.35;47.65
71128;SHT30;59249;59.736;30.568;2023-07-31T10:43:25;28.12;46.23
71128;SHT30;59249;59.736;30.568;2023-07-31T10:45:55;28.00;47.34
71128;SHT30;59249;59.736;30.568;2023-07-31T10:48:33;27.84;47.07
71128;SHT30;59249;59.736;30.568;2023-07-31T10:51:09;27.53;47.62
71128;SHT30;59249;59.736;30.568;2023-07-31T10:53:40;27.43;48.04
71128;SHT30;59249;59.736;30.568;2023-07-31T10:56:10;27.38;47.95
71128;SHT30;59249;59.736;30.568;2023-07-31T10:58:44;27.55;47.87
71128;SHT30;59249;59.736;30.568;2023-07-31T11:01:13;27.69;48.28
71128;SHT30;59249;59.736;30.568;2023-07-31T11:03:45;27.71;47.39
71128;SHT30;59249;59.736;30.568;2023-07-31T11:06:16;27.68;47.20
71128;SHT30;59249;59.736;30.568;2023-07-31T11:08:48;27.75;47.60
71128;SHT30;59249;59.736;30.568;2023-07-31T11:11:19;27.71;47.39
71128;SHT30;59249;59.736;30.568;2023-07-31T11:13:52;27.61;47.68
71128;SHT30;59249;59.736;30.568;2023-07-31T11:16:24;27.57;47.24
71128;SHT30;59249;59.736;30.568;2023-07-31T11:18:54;27.68;47.74
71128;SHT30;59249;59.736;30.568;2023-07-31T11:21:25;27.89;48.02
71128;SHT30;59249;59.736;30.568;2023-07-31T11:23:57;27.98;48.07
71128;SHT30;59249;59.736;30.568;2023-07-31T11:26:27;28.11;47.50
71128;SHT30;59249;59.736;30.568;2023-07-31T11:29:00;28.55;48.02
71128;SHT30;59249;59.736;30.568;2023-07-31T11:31:29;28.94;47.32
71128;SHT30;59249;59.736;30.568;2023-07-31T11:34:07;29.02;46.41
71128;SHT30;59249;59.736;30.568;2023-07-31T11:36:36;28.94;46.85
71128;SHT30;59249;59.736;30.568;2023-07-31T11:39:07;28.62;47.05
71128;SHT30;59249;59.736;30.568;2023-07-31T11:41:40;28.39;47.38
71128;SHT30;59249;59.736;30.568;2023-07-31T11:44:11;28.00;47.44
71128;SHT30;59249;59.736;30.568;2023-07-31T11:46:57;27.86;47.71
71128;SHT30;59249;59.736;30.568;2023-07-31T11:49:30;27.76;48.05
71128;SHT30;59249;59.736;30.568;2023-07-31T11:52:04;27.32;48.99
71128;SHT30;59249;59.736;30.568;2023-07-31T11:54:34;27.37;48.44
71128;SHT30;59249;59.736;30.568;2023-07-31T11:57:05;27.43;48.20
71128;SHT30;59249;59.736;30.568;2023-07-31T11:59:38;27.35;48.61
71128;SHT30;59249;59.736;30.568;2023-07-31T12:02:07;27.29;48.68
71128;SHT30;59249;59.736;30.568;2023-07-31T12:04:37;27.22;49.38
71128;SHT30;59249;59.736;30.568;2023-07-31T12:07:06;27.25;49.62
71128;SHT30;59249;59.736;30.568;2023-07-31T12:09:35;27.18;50.71
71128;SHT30;59249;59.736;30.568;2023-07-31T12:12:08;27.30;49.94
71128;SHT30;59249;59.736;30.568;2023-07-31T12:14:42;27.49;49.36
71128;SHT30;59249;59.736;30.568;2023-07-31T12:17:11;27.75;48.65
71128;SHT30;59249;59.736;30.568;2023-07-31T12:19:41;27.74;48.11
71128;SHT30;59249;59.736;30.568;2023-07-31T12:22:14;27.65;47.84
71128;SHT30;59249;59.736;30.568;2023-07-31T12:24:44;27.54;48.22
71128;SHT30;59249;59.736;30.568;2023-07-31T12:27:15;27.46;48.78
71128;SHT30;59249;59.736;30.568;2023-07-31T12:29:47;27.18;48.98
71128;SHT30;59249;59.736;30.568;2023-07-31T12:32:21;27.10;49.21
71128;SHT30;59249;59.736;30.568;2023-07-31T12:34:51;27.11;49.57
71128;SHT30;59249;59.736;30.568;2023-07-31T12:37:21;27.02;50.38
71128;SHT30;59249;59.736;30.568;2023-07-31T12:39:52;27.01;50.64
71128;SHT30;59249;59.736;30.568;2023-07-31T12:42:22;27.07;50.52
71128;SHT30;59249;59.736;30.568;2023-07-31T12:45:00;27.18;50.47
71128;SHT30;59249;59.736;30.568;2023-07-31T12:47:31;27.20;50.86
71128;SHT30;59249;59.736;30.568;2023-07-31T12:50:00;27.24;50.94
71128;SHT30;59249;59.736;30.568;2023-07-31T12:52:49;27.08;52.08
71128;SHT30;59249;59.736;30.568;2023-07-31T12:55:26;26.96;52.29
71128;SHT30;59249;59.736;30.568;2023-07-31T12:57:56;26.73;53.67
71128;SHT30;59249;59.736;30.568;2023-07-31T13:00:27;26.61;54.59
71128;SHT30;59249;59.736;30.568;2023-07-31T13:02:56;26.58;54.13
71128;SHT30;59249;59.736;30.568;2023-07-31T13:05:26;26.72;54.28
71128;SHT30;59249;59.736;30.568;2023-07-31T13:07:55;27.08;54.57
71128;SHT30;59249;59.736;30.568;2023-07-31T13:10:25;27.23;53.95
71128;SHT30;59249;59.736;30.568;2023-07-31T13:12:55;27.35;53.14
71128;SHT30;59249;59.736;30.568;2023-07-31T13:15:24;27.48;52.36
71128;SHT30;59249;59.736;30.568;2023-07-31T13:17:55;27.68;52.43
71128;SHT30;59249;59.736;30.568;2023-07-31T13:20:24;27.99;51.65
71128;SHT30;59249;59.736;30.568;2023-07-31T13:22:53;28.32;51.16
71128;SHT30;59249;59.736;30.568;2023-07-31T13:25:23;28.66;49.80
71128;SHT30;59249;59.736;30.568;2023-07-31T13:27:52;28.85;49.53
71128;SHT30;59249;59.736;30.568;2023-07-31T13:30:21;29.02;47.53
71128;SHT30;59249;59.736;30.568;2023-07-31T13:32:50;29.10;48.08
71128;SHT30;59249;59.736;30.568;2023-07-31T13:35:20;29.07;48.02
71128;SHT30;59249;59.736;30.568;2023-07-31T13:37:50;29.18;48.31
71128;SHT30;59249;59.736;30.568;2023-07-31T13:40:19;29.20;48.44
71128;SHT30;59249;59.736;30.568;2023-07-31T13:42:48;29.23;47.87
71128;SHT30;59249;59.736;30.568;2023-07-31T13:45:17;29.10;47.48
71128;SHT30;59249;59.736;30.568;2023-07-31T13:47:46;29.22;47.13
71128;SHT30;59249;59.736;30.568;2023-07-31T13:50:16;29.27;47.20
71128;SHT30;59249;59.736;30.568;2023-07-31T13:52:48;29.35;46.77
71128;SHT30;59249;59.736;30.568;2023-07-31T13:55:17;29.38;45.53
71128;SHT30;59249;59.736;30.568;2023-07-31T13:57:47;29.40;45.70
71128;SHT30;59249;59.736;30.568;2023-07-31T14:00:16;29.53;45.36
71128;SHT30;59249;59.736;30.568;2023-07-31T14:02:45;29.53;45.33
71128;SHT30;59249;59.736;30.568;2023-07-31T14:05:14;29.65;45.52
71128;SHT30;59249;59.736;30.568;2023-07-31T14:07:43;29.62;45.02
71128;SHT30;59249;59.736;30.568;2023-07-31T14:10:14;29.44;45.02
71128;SHT30;59249;59.736;30.568;2023-07-31T14:12:43;29.42;45.27
71128;SHT30;59249;59.736;30.568;2023-07-31T14:15:12;29.47;44.89
71128;SHT30;59249;59.736;30.568;2023-07-31T14:17:42;29.55;44.96
71128;SHT30;59249;59.736;30.568;2023-07-31T14:20:12;29.69;45.25
71128;SHT30;59249;59.736;30.568;2023-07-31T14:22:41;29.79;45.83
71128;SHT30;59249;59.736;30.568;2023-07-31T14:25:10;29.81;44.57
71128;SHT30;59249;59.736;30.568;2023-07-31T14:27:41;29.87;44.35
71128;SHT30;59249;59.736;30.568;2023-07-31T14:30:10;29.95;43.84
71128;SHT30;59249;59.736;30.568;2023-07-31T14:32:40;30.19;43.35
71128;SHT30;59249;59.736;30.568;2023-07-31T14:35:09;30.27;44.18
71128;SHT30;59249;59.736;30.568;2023-07-31T14:37:40;30.47;44.76
71128;SHT30;59249;59.736;30.568;2023-07-31T14:40:11;30.56;45.01
71128;SHT30;59249;59.736;30.568;2023-07-31T14:42:42;30.68;45.10
71128;SHT30;59249;59.736;30.568;2023-07-31T14:45:12;30.33;44.95
71128;SHT30;59249;59.736;30.568;2023-07-31T14:47:44;30.00;45.94
71128;SHT30;59249;59.736;30.568;2023-07-31T14:50:13;29.71;46.36
71128;SHT30;59249;59.736;30.568;2023-07-31T14:52:42;29.40;46.35
71128;SHT30;59249;59.736;30.568;2023-07-31T14:55:11;29.02;46.94
71128;SHT30;59249;59.736;30.568;2023-07-31T14:57:42;28.79;46.44
71128;SHT30;59249;59.736;30.568;2023-07-31T15:00:12;28.61;47.01
71128;SHT30;59249;59.736;30.568;2023-07-31T15:02:42;28.38;47.10
71128;SHT30;59249;59.736;30.568;2023-07-31T15:05:12;28.15;47.45
71128;SHT30;59249;59.736;30.568;2023-07-31T15:07:41;28.05;47.93
71128;SHT30;59249;59.736;30.568;2023-07-31T15:10:10;27.89;48.04
71128;SHT30;59249;59.736;30.568;2023-07-31T15:12:42;27.76;48.50
71128;SHT30;59249;59.736;30.568;2023-07-31T15:15:13;27.69;48.64
71128;SHT30;59249;59.736;30.568;2023-07-31T15:17:43;27.51;48.64
71128;SHT30;59249;59.736;30.568;2023-07-31T15:20:12;27.38;49.68
71128;SHT30;59249;59.736;30.568;2023-07-31T15:22:42;27.26;50.04
71128;SHT30;59249;59.736;30.568;2023-07-31T15:25:11;27.07;50.42
71128;SHT30;59249;59.736;30.568;2023-07-31T15:27:43;26.66;52.92
71128;SHT30;59249;59.736;30.568;2023-07-31T15:30:13;26.22;54.59
71128;SHT30;59249;59.736;30.568;2023-07-31T15:32:42;25.80;56.66
71128;SHT30;59249;59.736;30.568;2023-07-31T15:35:16;25.37;57.67
71128;SHT30;59249;59.736;30.568;2023-07-31T15:37:49;25.08;58.79